LGL35EK ELLX-EKCH
Flight info
| Callsign | LGL35EK |
|---|---|
| Flight time | N/A |
| Altitude | 33000 |
| Route | DCT ARCKY N853 ONUNE DCT ROBEG DCT RAMAR DCT MAKEL N851 GESKA Z711 MONAK DCT |
| Aircraft | B738/M-SDE2E3FGHIRWXY/LB1 |
Departure
| Time | N/A |
|---|---|
| Airport | Luxembourg-Findel International Airport (ELLX) |
Arrival
| Time | 2026-04-30 20:55 |
|---|---|
| Airport | Copenhagen Kastrup Airport (EKCH) |
| Time | Latitude | Longitude | Altitude | Speed | Heading |
|---|---|---|---|---|---|
| 2026-04-30 20:35 | 54.73899 | 12.07242 | 18960 ft | 390 kts | 34° |
| 2026-04-30 20:36 | 54.76136 | 12.09850 | 18254 ft | 386 kts | 34° |
| 2026-04-30 20:36 | 54.78355 | 12.12432 | 17553 ft | 382 kts | 34° |
| 2026-04-30 20:36 | 54.82725 | 12.17515 | 16258 ft | 374 kts | 34° |
| 2026-04-30 20:37 | 54.84874 | 12.20019 | 15629 ft | 370 kts | 34° |
| 2026-04-30 20:37 | 54.87003 | 12.22503 | 15011 ft | 367 kts | 34° |
| 2026-04-30 20:37 | 54.89114 | 12.24970 | 14394 ft | 364 kts | 35° |
| 2026-04-30 20:37 | 54.91210 | 12.27422 | 13715 ft | 362 kts | 35° |
| 2026-04-30 20:38 | 54.93260 | 12.29824 | 13063 ft | 359 kts | 34° |
| 2026-04-30 20:38 | 54.95323 | 12.32246 | 12625 ft | 357 kts | 34° |
| 2026-04-30 20:38 | 54.97405 | 12.34699 | 12509 ft | 366 kts | 34° |
| 2026-04-30 20:39 | 55.01683 | 12.39724 | 12425 ft | 374 kts | 34° |
| 2026-04-30 20:39 | 55.03843 | 12.42237 | 12417 ft | 373 kts | 34° |
| 2026-04-30 20:39 | 55.05999 | 12.44747 | 12411 ft | 373 kts | 34° |
| 2026-04-30 20:40 | 55.10307 | 12.49779 | 12416 ft | 373 kts | 34° |
| 2026-04-30 20:40 | 55.12462 | 12.52304 | 12417 ft | 373 kts | 34° |
| 2026-04-30 20:40 | 55.14617 | 12.54835 | 12421 ft | 373 kts | 34° |
| 2026-04-30 20:41 | 55.18858 | 12.59824 | 12324 ft | 355 kts | 34° |
| 2026-04-30 20:41 | 55.20866 | 12.62190 | 12227 ft | 340 kts | 34° |
| 2026-04-30 20:41 | 55.22785 | 12.64437 | 12124 ft | 325 kts | 32° |
| 2026-04-30 20:41 | 55.24804 | 12.66001 | 12022 ft | 312 kts | 19° |
| 2026-04-30 20:42 | 55.26836 | 12.67095 | 11954 ft | 300 kts | 18° |
| 2026-04-30 20:42 | 55.28790 | 12.68158 | 11870 ft | 288 kts | 19° |
| 2026-04-30 20:42 | 55.32505 | 12.70241 | 11460 ft | 277 kts | 19° |
| 2026-04-30 20:43 | 55.34337 | 12.71285 | 11128 ft | 277 kts | 19° |
| 2026-04-30 20:43 | 55.36167 | 12.72329 | 10802 ft | 276 kts | 19° |
| 2026-04-30 20:43 | 55.37995 | 12.73375 | 10489 ft | 276 kts | 19° |
| 2026-04-30 20:44 | 55.41431 | 12.76150 | 9797 ft | 274 kts | 45° |
| 2026-04-30 20:44 | 55.42408 | 12.78998 | 9487 ft | 275 kts | 72° |
| 2026-04-30 20:44 | 55.41859 | 12.85534 | 8878 ft | 280 kts | 112° |
| 2026-04-30 20:45 | 55.40080 | 12.90315 | 8343 ft | 282 kts | 124° |
| 2026-04-30 20:45 | 55.38476 | 12.93901 | 7974 ft | 280 kts | 125° |
| 2026-04-30 20:45 | 55.37269 | 12.96574 | 7678 ft | 279 kts | 125° |
| 2026-04-30 20:46 | 55.34066 | 13.03651 | 6913 ft | 275 kts | 125° |
| 2026-04-30 20:46 | 55.33090 | 13.06475 | 6614 ft | 268 kts | 104° |
| 2026-04-30 20:47 | 55.33707 | 13.12499 | 6112 ft | 259 kts | 49° |
| 2026-04-30 20:47 | 55.35153 | 13.14341 | 5858 ft | 261 kts | 21° |
| 2026-04-30 20:48 | 55.38673 | 13.13722 | 5389 ft | 267 kts | 337° |
| 2026-04-30 20:48 | 55.40345 | 13.12313 | 5142 ft | 265 kts | 335° |
| 2026-04-30 20:48 | 55.41950 | 13.10747 | 4894 ft | 263 kts | 327° |
| 2026-04-30 20:48 | 55.43423 | 13.08902 | 4710 ft | 257 kts | 325° |
| 2026-04-30 20:49 | 55.44853 | 13.07054 | 4525 ft | 252 kts | 325° |
| 2026-04-30 20:49 | 55.46253 | 13.05232 | 4341 ft | 248 kts | 325° |
| 2026-04-30 20:49 | 55.47608 | 13.03418 | 4199 ft | 242 kts | 320° |
| 2026-04-30 20:50 | 55.49598 | 12.98844 | 3965 ft | 225 kts | 304° |
| 2026-04-30 20:50 | 55.50416 | 12.96574 | 3880 ft | 212 kts | 304° |
| 2026-04-30 20:50 | 55.51194 | 12.94427 | 3669 ft | 206 kts | 304° |
| 2026-04-30 20:50 | 55.51962 | 12.92327 | 3414 ft | 202 kts | 305° |
| 2026-04-30 20:51 | 55.52720 | 12.90259 | 3150 ft | 199 kts | 304° |
| 2026-04-30 20:51 | 55.54194 | 12.86241 | 2626 ft | 191 kts | 305° |
| 2026-04-30 20:51 | 55.54908 | 12.84294 | 2374 ft | 187 kts | 305° |
| 2026-04-30 20:52 | 55.55596 | 12.82422 | 2119 ft | 176 kts | 305° |
| 2026-04-30 20:52 | 55.56241 | 12.80666 | 1895 ft | 164 kts | 305° |
| 2026-04-30 20:52 | 55.57382 | 12.77562 | 1478 ft | 139 kts | 306° |
| 2026-04-30 20:53 | 55.57906 | 12.76139 | 1299 ft | 138 kts | 306° |
| 2026-04-30 20:53 | 55.58429 | 12.74723 | 1120 ft | 137 kts | 306° |
| 2026-04-30 20:53 | 55.58949 | 12.73313 | 926 ft | 137 kts | 305° |
| 2026-04-30 20:54 | 55.60007 | 12.70441 | 537 ft | 141 kts | 304° |
| 2026-04-30 20:54 | 55.60546 | 12.68984 | 360 ft | 142 kts | 303° |
| 2026-04-30 20:54 | 55.61084 | 12.67519 | 158 ft | 141 kts | 303° |
| 2026-04-30 20:55 | 55.62046 | 12.64923 | 24 ft | 92 kts | 303° |
| 2026-04-30 20:55 | 55.62306 | 12.64223 | 20 ft | 52 kts | 304° |
| 2026-04-30 20:55 | 55.62459 | 12.63834 | 21 ft | 23 kts | 322° |
| 2026-04-30 20:56 | 55.62656 | 12.63819 | 24 ft | 8 kts | 31° |
| 2026-04-30 20:56 | 55.62705 | 12.63875 | 23 ft | 8 kts | 33° |
| 2026-04-30 20:56 | 55.62803 | 12.63953 | 23 ft | 9 kts | 344° |
| 2026-04-30 20:57 | 55.62841 | 12.63864 | 23 ft | 10 kts | 288° |
| 2026-04-30 20:57 | 55.62861 | 12.63725 | 23 ft | 12 kts | 279° |
| 2026-04-30 20:57 | 55.62859 | 12.63573 | 23 ft | 12 kts | 265° |
| 2026-04-30 20:58 | 55.62894 | 12.63512 | 26 ft | 3 kts | 36° |
| 2026-04-30 20:58 | 55.62901 | 12.63522 | 25 ft | 0 kts | 40° |